sensor_id;sensor_type;location;lat;lon;timestamp;pressure;altitude;pressure_sealevel;temperature;humidity
33625;BME280;19962;47.820;1.930;2024-01-15T00:00:00;100120.22;;;3.31;79.71
33625;BME280;19962;47.820;1.930;2024-01-15T00:02:26;100103.59;;;3.34;79.88
33625;BME280;19962;47.820;1.930;2024-01-15T00:04:52;100105.63;;;3.32;79.87
33625;BME280;19962;47.820;1.930;2024-01-15T00:07:18;100104.66;;;3.40;79.85
33625;BME280;19962;47.820;1.930;2024-01-15T00:09:44;100108.84;;;3.42;79.63
33625;BME280;19962;47.820;1.930;2024-01-15T00:12:11;100104.50;;;3.48;79.55
33625;BME280;19962;47.820;1.930;2024-01-15T00:14:37;100103.84;;;3.39;79.69
33625;BME280;19962;47.820;1.930;2024-01-15T00:17:03;100092.06;;;3.32;79.88
33625;BME280;19962;47.820;1.930;2024-01-15T00:19:29;100079.19;;;3.34;80.12
33625;BME280;19962;47.820;1.930;2024-01-15T00:21:58;100089.03;;;3.42;80.01
33625;BME280;19962;47.820;1.930;2024-01-15T00:24:25;100100.06;;;3.40;79.91
33625;BME280;19962;47.820;1.930;2024-01-15T00:26:51;100094.91;;;3.45;79.82
33625;BME280;19962;47.820;1.930;2024-01-15T00:29:17;100104.47;;;3.41;79.73
33625;BME280;19962;47.820;1.930;2024-01-15T00:31:43;100094.47;;;3.42;79.84
33625;BME280;19962;47.820;1.930;2024-01-15T00:34:09;100091.56;;;3.43;80.04
33625;BME280;19962;47.820;1.930;2024-01-15T00:36:35;100100.72;;;3.42;80.01
33625;BME280;19962;47.820;1.930;2024-01-15T00:39:01;100094.28;;;3.43;80.05
33625;BME280;19962;47.820;1.930;2024-01-15T00:41:27;100093.66;;;3.48;79.70
33625;BME280;19962;47.820;1.930;2024-01-15T00:43:53;100085.16;;;3.51;79.89
33625;BME280;19962;47.820;1.930;2024-01-15T00:46:20;100081.22;;;3.53;79.87
33625;BME280;19962;47.820;1.930;2024-01-15T00:48:46;100085.59;;;3.54;79.87
33625;BME280;19962;47.820;1.930;2024-01-15T00:51:13;100087.69;;;3.52;79.92
33625;BME280;19962;47.820;1.930;2024-01-15T00:53:39;100090.63;;;3.57;79.84
33625;BME280;19962;47.820;1.930;2024-01-15T00:56:06;100080.59;;;3.58;79.57
33625;BME280;19962;47.820;1.930;2024-01-15T00:58:32;100079.78;;;3.57;79.86
33625;BME280;19962;47.820;1.930;2024-01-15T01:00:58;100072.28;;;3.59;79.79
33625;BME280;19962;47.820;1.930;2024-01-15T01:03:24;100065.56;;;3.55;79.71
33625;BME280;19962;47.820;1.930;2024-01-15T01:05:50;100050.97;;;3.56;79.91
33625;BME280;19962;47.820;1.930;2024-01-15T01:08:16;100050.34;;;3.54;79.66
33625;BME280;19962;47.820;1.930;2024-01-15T01:10:43;100053.03;;;3.54;79.65
33625;BME280;19962;47.820;1.930;2024-01-15T01:13:09;100055.91;;;3.46;79.84
33625;BME280;19962;47.820;1.930;2024-01-15T01:15:35;100053.59;;;3.43;79.99
33625;BME280;19962;47.820;1.930;2024-01-15T01:18:01;100055.66;;;3.41;80.11
33625;BME280;19962;47.820;1.930;2024-01-15T01:20:27;100056.03;;;3.38;80.32
33625;BME280;19962;47.820;1.930;2024-01-15T01:22:53;100059.78;;;3.37;80.10
33625;BME280;19962;47.820;1.930;2024-01-15T01:25:20;100052.69;;;3.36;80.40
33625;BME280;19962;47.820;1.930;2024-01-15T01:27:46;100044.75;;;3.35;80.16
33625;BME280;19962;47.820;1.930;2024-01-15T01:30:12;100047.72;;;3.40;80.09
33625;BME280;19962;47.820;1.930;2024-01-15T01:32:38;100037.06;;;3.38;80.17
33625;BME280;19962;47.820;1.930;2024-01-15T01:35:04;100028.53;;;3.41;80.17
33625;BME280;19962;47.820;1.930;2024-01-15T01:37:30;100028.78;;;3.46;79.87
33625;BME280;19962;47.820;1.930;2024-01-15T01:39:56;100018.59;;;3.48;79.97
33625;BME280;19962;47.820;1.930;2024-01-15T01:42:22;100014.59;;;3.44;79.78
33625;BME280;19962;47.820;1.930;2024-01-15T01:44:48;100018.72;;;3.40;79.84
33625;BME280;19962;47.820;1.930;2024-01-15T01:47:15;100013.94;;;3.42;80.03
33625;BME280;19962;47.820;1.930;2024-01-15T01:49:41;100011.41;;;3.41;80.09
33625;BME280;19962;47.820;1.930;2024-01-15T01:52:07;100010.34;;;3.35;80.16
33625;BME280;19962;47.820;1.930;2024-01-15T01:54:35;100011.00;;;3.37;80.28
33625;BME280;19962;47.820;1.930;2024-01-15T01:57:03;100016.28;;;3.45;80.17
33625;BME280;19962;47.820;1.930;2024-01-15T01:59:33;100010.88;;;3.52;79.92
33625;BME280;19962;47.820;1.930;2024-01-15T02:02:01;99998.56;;;3.49;80.03
33625;BME280;19962;47.820;1.930;2024-01-15T02:04:30;99999.19;;;3.51;79.84
33625;BME280;19962;47.820;1.930;2024-01-15T02:06:57;100004.84;;;3.56;79.91
33625;BME280;19962;47.820;1.930;2024-01-15T02:09:23;100010.09;;;3.58;79.66
33625;BME280;19962;47.820;1.930;2024-01-15T02:11:49;100005.91;;;3.55;79.86
33625;BME280;19962;47.820;1.930;2024-01-15T02:14:15;100011.31;;;3.55;79.73
33625;BME280;19962;47.820;1.930;2024-01-15T02:16:42;100013.00;;;3.56;79.68
33625;BME280;19962;47.820;1.930;2024-01-15T02:19:10;100007.84;;;3.61;79.65
33625;BME280;19962;47.820;1.930;2024-01-15T02:21:40;100015.13;;;3.61;79.81
33625;BME280;19962;47.820;1.930;2024-01-15T02:24:06;99998.00;;;3.60;79.75
33625;BME280;19962;47.820;1.930;2024-01-15T02:26:32;99993.22;;;3.62;79.86
33625;BME280;19962;47.820;1.930;2024-01-15T02:29:02;99998.03;;;3.67;79.68
33625;BME280;19962;47.820;1.930;2024-01-15T02:31:28;100010.59;;;3.68;79.51
33625;BME280;19962;47.820;1.930;2024-01-15T02:33:54;100008.47;;;3.63;79.60
33625;BME280;19962;47.820;1.930;2024-01-15T02:36:20;100011.38;;;3.62;79.78
33625;BME280;19962;47.820;1.930;2024-01-15T02:38:46;100007.19;;;3.59;79.83
33625;BME280;19962;47.820;1.930;2024-01-15T02:41:12;100007.84;;;3.61;79.91
33625;BME280;19962;47.820;1.930;2024-01-15T02:43:40;100005.31;;;3.60;79.92
33625;BME280;19962;47.820;1.930;2024-01-15T02:46:07;100003.19;;;3.55;80.05
33625;BME280;19962;47.820;1.930;2024-01-15T02:48:33;100008.19;;;3.52;80.11
33625;BME280;19962;47.820;1.930;2024-01-15T02:51:01;100008.31;;;3.44;80.17
33625;BME280;19962;47.820;1.930;2024-01-15T02:53:28;100004.94;;;3.35;80.12
33625;BME280;19962;47.820;1.930;2024-01-15T02:55:54;100014.88;;;3.28;80.44
33625;BME280;19962;47.820;1.930;2024-01-15T02:58:20;100012.78;;;3.24;80.56
33625;BME280;19962;47.820;1.930;2024-01-15T03:00:46;100007.34;;;3.24;80.85
33625;BME280;19962;47.820;1.930;2024-01-15T03:03:13;100010.13;;;3.30;80.86
33625;BME280;19962;47.820;1.930;2024-01-15T03:05:39;100004.94;;;3.35;80.31
33625;BME280;19962;47.820;1.930;2024-01-15T03:08:05;100007.03;;;3.40;80.21
33625;BME280;19962;47.820;1.930;2024-01-15T03:10:31;100007.94;;;3.47;80.26
33625;BME280;19962;47.820;1.930;2024-01-15T03:12:57;100010.84;;;3.45;80.15
33625;BME280;19962;47.820;1.930;2024-01-15T03:15:24;100005.63;;;3.44;80.03
33625;BME280;19962;47.820;1.930;2024-01-15T03:17:50;100008.19;;;3.52;80.13
33625;BME280;19962;47.820;1.930;2024-01-15T03:20:16;100005.72;;;3.57;80.22
33625;BME280;19962;47.820;1.930;2024-01-15T03:22:42;100010.75;;;3.60;79.71
33625;BME280;19962;47.820;1.930;2024-01-15T03:25:08;100000.72;;;3.60;79.83
33625;BME280;19962;47.820;1.930;2024-01-15T03:27:34;100008.84;;;3.60;79.65
33625;BME280;19962;47.820;1.930;2024-01-15T03:30:00;100008.84;;;3.60;80.04
33625;BME280;19962;47.820;1.930;2024-01-15T03:32:28;99999.09;;;3.66;79.93
33625;BME280;19962;47.820;1.930;2024-01-15T03:34:54;99997.00;;;3.61;79.70
33625;BME280;19962;47.820;1.930;2024-01-15T03:37:20;99998.41;;;3.57;79.86
33625;BME280;19962;47.820;1.930;2024-01-15T03:39:46;99988.59;;;3.56;80.28
33625;BME280;19962;47.820;1.930;2024-01-15T03:42:12;99989.25;;;3.58;79.97
33625;BME280;19962;47.820;1.930;2024-01-15T03:44:38;99982.38;;;3.62;79.94
33625;BME280;19962;47.820;1.930;2024-01-15T03:47:04;99984.84;;;3.57;79.90
33625;BME280;19962;47.820;1.930;2024-01-15T03:49:30;99975.44;;;3.53;80.22
33625;BME280;19962;47.820;1.930;2024-01-15T03:51:56;99969.59;;;3.56;80.22
33625;BME280;19962;47.820;1.930;2024-01-15T03:54:22;99972.13;;;3.58;80.07
33625;BME280;19962;47.820;1.930;2024-01-15T03:56:48;99972.16;;;3.64;80.16
33625;BME280;19962;47.820;1.930;2024-01-15T03:59:14;99961.31;;;3.64;79.99
33625;BME280;19962;47.820;1.930;2024-01-15T04:01:41;99962.97;;;3.65;79.97
33625;BME280;19962;47.820;1.930;2024-01-15T04:04:07;99961.97;;;3.66;80.00
33625;BME280;19962;47.820;1.930;2024-01-15T04:06:33;99958.22;;;3.67;80.00
33625;BME280;19962;47.820;1.930;2024-01-15T04:08:59;99955.50;;;3.67;80.00
33625;BME280;19962;47.820;1.930;2024-01-15T04:11:25;99955.53;;;3.74;79.76
33625;BME280;19962;47.820;1.930;2024-01-15T04:13:51;99950.28;;;3.72;79.76
33625;BME280;19962;47.820;1.930;2024-01-15T04:16:17;99954.88;;;3.72;79.72
33625;BME280;19962;47.820;1.930;2024-01-15T04:18:43;99947.19;;;3.75;79.73
33625;BME280;19962;47.820;1.930;2024-01-15T04:21:09;99952.38;;;3.70;79.88
33625;BME280;19962;47.820;1.930;2024-01-15T04:23:35;99941.72;;;3.69;79.90
33625;BME280;19962;47.820;1.930;2024-01-15T04:26:01;99937.13;;;3.69;80.04
33625;BME280;19962;47.820;1.930;2024-01-15T04:28:27;99935.88;;;3.72;80.22
33625;BME280;19962;47.820;1.930;2024-01-15T04:30:53;99940.50;;;3.71;80.20
33625;BME280;19962;47.820;1.930;2024-01-15T04:33:19;99939.25;;;3.74;79.86
33625;BME280;19962;47.820;1.930;2024-01-15T04:35:45;99936.34;;;3.75;79.97
33625;BME280;19962;47.820;1.930;2024-01-15T04:38:12;99937.63;;;3.79;79.97
33625;BME280;19962;47.820;1.930;2024-01-15T04:40:38;99910.50;;;3.79;79.91
33625;BME280;19962;47.820;1.930;2024-01-15T04:43:04;99905.28;;;3.84;79.79
33625;BME280;19962;47.820;1.930;2024-01-15T04:45:30;99914.66;;;3.82;79.72
33625;BME280;19962;47.820;1.930;2024-01-15T04:47:56;99913.44;;;3.84;79.94
33625;BME280;19962;47.820;1.930;2024-01-15T04:50:23;99909.03;;;3.77;79.90
33625;BME280;19962;47.820;1.930;2024-01-15T04:52:49;99910.88;;;3.76;79.99
33625;BME280;19962;47.820;1.930;2024-01-15T04:55:15;99914.19;;;3.72;80.24
33625;BME280;19962;47.820;1.930;2024-01-15T04:57:42;99915.25;;;3.77;80.17
33625;BME280;19962;47.820;1.930;2024-01-15T05:00:08;99910.88;;;3.76;79.99
33625;BME280;19962;47.820;1.930;2024-01-15T05:02:34;99919.38;;;3.67;80.24
33625;BME280;19962;47.820;1.930;2024-01-15T05:05:00;99909.59;;;3.72;80.05
33625;BME280;19962;47.820;1.930;2024-01-15T05:07:26;99907.94;;;3.71;80.18
33625;BME280;19962;47.820;1.930;2024-01-15T05:09:52;99905.84;;;3.73;80.15
33625;BME280;19962;47.820;1.930;2024-01-15T05:12:18;99915.91;;;3.79;80.17
33625;BME280;19962;47.820;1.930;2024-01-15T05:14:45;99911.09;;;3.81;79.96
33625;BME280;19962;47.820;1.930;2024-01-15T05:17:11;99908.81;;;3.85;79.84
33625;BME280;19962;47.820;1.930;2024-01-15T05:19:37;99897.53;;;3.81;79.82
33625;BME280;19962;47.820;1.930;2024-01-15T05:22:03;99902.13;;;3.81;80.04
33625;BME280;19962;47.820;1.930;2024-01-15T05:24:29;99893.00;;;3.88;79.77
33625;BME280;19962;47.820;1.930;2024-01-15T05:26:55;99885.88;;;3.87;79.75
33625;BME280;19962;47.820;1.930;2024-01-15T05:29:21;99877.09;;;3.85;79.77
33625;BME280;19962;47.820;1.930;2024-01-15T05:31:47;99873.78;;;3.83;79.67
33625;BME280;19962;47.820;1.930;2024-01-15T05:34:13;99883.38;;;3.86;79.79
33625;BME280;19962;47.820;1.930;2024-01-15T05:36:39;99875.47;;;3.91;79.83
33625;BME280;19962;47.820;1.930;2024-01-15T05:39:05;99876.72;;;3.88;79.89
33625;BME280;19962;47.820;1.930;2024-01-15T05:41:31;99856.47;;;3.91;79.66
33625;BME280;19962;47.820;1.930;2024-01-15T05:43:57;99849.56;;;3.88;79.72
33625;BME280;19962;47.820;1.930;2024-01-15T05:46:23;99850.59;;;3.87;79.90
33625;BME280;19962;47.820;1.930;2024-01-15T05:48:49;99853.97;;;3.89;79.99
33625;BME280;19962;47.820;1.930;2024-01-15T05:51:15;99852.28;;;3.82;79.92
33625;BME280;19962;47.820;1.930;2024-01-15T05:53:41;99851.41;;;3.81;79.93
33625;BME280;19962;47.820;1.930;2024-01-15T05:56:10;99851.63;;;3.80;80.14
33625;BME280;19962;47.820;1.930;2024-01-15T05:58:37;99857.47;;;3.77;80.32
33625;BME280;19962;47.820;1.930;2024-01-15T06:01:03;99864.56;;;3.78;80.29
33625;BME280;19962;47.820;1.930;2024-01-15T06:03:29;99871.63;;;3.72;80.29
33625;BME280;19962;47.820;1.930;2024-01-15T06:05:56;99858.25;;;3.71;80.32
33625;BME280;19962;47.820;1.930;2024-01-15T06:08:22;99860.34;;;3.69;80.63
33625;BME280;19962;47.820;1.930;2024-01-15T06:10:48;99864.13;;;3.68;80.55
33625;BME280;19962;47.820;1.930;2024-01-15T06:13:14;99866.19;;;3.66;80.42
33625;BME280;19962;47.820;1.930;2024-01-15T06:15:40;99872.44;;;3.66;80.67
33625;BME280;19962;47.820;1.930;2024-01-15T06:18:06;99875.16;;;3.66;80.72
33625;BME280;19962;47.820;1.930;2024-01-15T06:20:32;99870.78;;;3.72;80.61
33625;BME280;19962;47.820;1.930;2024-01-15T06:22:58;99869.13;;;3.71;80.58
33625;BME280;19962;47.820;1.930;2024-01-15T06:25:24;99873.13;;;3.81;80.38
33625;BME280;19962;47.820;1.930;2024-01-15T06:27:50;99868.97;;;3.85;80.21
33625;BME280;19962;47.820;1.930;2024-01-15T06:30:16;99874.78;;;3.82;80.54
33625;BME280;19962;47.820;1.930;2024-01-15T06:32:42;99887.94;;;3.79;80.41
33625;BME280;19962;47.820;1.930;2024-01-15T06:35:08;99869.56;;;3.74;80.63
33625;BME280;19962;47.820;1.930;2024-01-15T06:37:36;99868.91;;;3.72;80.63
33625;BME280;19962;47.820;1.930;2024-01-15T06:40:02;99871.25;;;3.75;80.72
33625;BME280;19962;47.820;1.930;2024-01-15T06:42:29;99858.28;;;3.77;80.55
33625;BME280;19962;47.820;1.930;2024-01-15T06:44:55;99856.63;;;3.76;80.65
33625;BME280;19962;47.820;1.930;2024-01-15T06:47:21;99857.91;;;3.80;80.80
33625;BME280;19962;47.820;1.930;2024-01-15T06:49:47;99859.97;;;3.78;80.70
33625;BME280;19962;47.820;1.930;2024-01-15T06:52:13;99865.38;;;3.78;80.72
33625;BME280;19962;47.820;1.930;2024-01-15T06:54:39;99861.19;;;3.76;80.71
33625;BME280;19962;47.820;1.930;2024-01-15T06:57:05;99871.63;;;3.72;80.67
33625;BME280;19962;47.820;1.930;2024-01-15T06:59:33;99871.19;;;3.62;81.17
33625;BME280;19962;47.820;1.930;2024-01-15T07:01:59;99875.75;;;3.62;81.09
33625;BME280;19962;47.820;1.930;2024-01-15T07:04:25;99872.22;;;3.61;81.16
33625;BME280;19962;47.820;1.930;2024-01-15T07:06:51;99883.69;;;3.63;81.25
33625;BME280;19962;47.820;1.930;2024-01-15T07:09:17;99898.50;;;3.61;81.01
33625;BME280;19962;47.820;1.930;2024-01-15T07:11:47;99892.41;;;3.52;81.18
33625;BME280;19962;47.820;1.930;2024-01-15T07:14:13;99887.38;;;3.49;81.32
33625;BME280;19962;47.820;1.930;2024-01-15T07:16:39;99904.47;;;3.43;81.36
33625;BME280;19962;47.820;1.930;2024-01-15T07:19:06;99891.06;;;3.35;81.61
33625;BME280;19962;47.820;1.930;2024-01-15T07:21:33;99888.16;;;3.37;81.66
33625;BME280;19962;47.820;1.930;2024-01-15T07:23:59;99879.81;;;3.38;81.61
33625;BME280;19962;47.820;1.930;2024-01-15T07:26:25;99899.41;;;3.34;81.62
33625;BME280;19962;47.820;1.930;2024-01-15T07:28:51;99892.50;;;3.31;81.75
33625;BME280;19962;47.820;1.930;2024-01-15T07:31:18;99881.00;;;3.29;81.75
33625;BME280;19962;47.820;1.930;2024-01-15T07:33:44;99893.31;;;3.32;81.73
33625;BME280;19962;47.820;1.930;2024-01-15T07:36:10;99892.75;;;3.36;81.43
33625;BME280;19962;47.820;1.930;2024-01-15T07:38:36;99887.34;;;3.43;81.45
33625;BME280;19962;47.820;1.930;2024-01-15T07:41:03;99902.38;;;3.45;81.21
33625;BME280;19962;47.820;1.930;2024-01-15T07:43:29;99905.72;;;3.47;81.14
33625;BME280;19962;47.820;1.930;2024-01-15T07:45:55;99908.44;;;3.47;81.16
33625;BME280;19962;47.820;1.930;2024-01-15T07:48:21;99905.47;;;3.42;81.31
33625;BME280;19962;47.820;1.930;2024-01-15T07:50:48;99914.66;;;3.41;81.31
33625;BME280;19962;47.820;1.930;2024-01-15T07:53:14;99903.19;;;3.39;81.34
33625;BME280;19962;47.820;1.930;2024-01-15T07:55:40;99909.44;;;3.40;81.14
33625;BME280;19962;47.820;1.930;2024-01-15T07:58:06;99908.16;;;3.36;81.34
33625;BME280;19962;47.820;1.930;2024-01-15T08:00:32;99914.38;;;3.30;81.38
33625;BME280;19962;47.820;1.930;2024-01-15T08:02:58;99911.09;;;3.34;81.53
33625;BME280;19962;47.820;1.930;2024-01-15T08:05:25;99910.25;;;3.34;81.56
33625;BME280;19962;47.820;1.930;2024-01-15T08:07:51;99914.00;;;3.33;81.39
33625;BME280;19962;47.820;1.930;2024-01-15T08:10:17;99923.13;;;3.32;81.42
33625;BME280;19962;47.820;1.930;2024-01-15T08:12:43;99918.00;;;3.37;81.24
33625;BME280;19962;47.820;1.930;2024-01-15T08:15:09;99915.00;;;3.32;81.42
33625;BME280;19962;47.820;1.930;2024-01-15T08:17:35;99924.00;;;3.32;81.43
33625;BME280;19962;47.820;1.930;2024-01-15T08:20:01;99931.50;;;3.30;81.34
33625;BME280;19962;47.820;1.930;2024-01-15T08:22:28;99917.94;;;3.30;81.40
33625;BME280;19962;47.820;1.930;2024-01-15T08:24:54;99926.94;;;3.37;81.24
33625;BME280;19962;47.820;1.930;2024-01-15T08:27:21;99926.63;;;3.53;81.20
33625;BME280;19962;47.820;1.930;2024-01-15T08:29:47;99934.19;;;3.64;80.44
33625;BME280;19962;47.820;1.930;2024-01-15T08:32:13;99926.03;;;3.64;80.56
33625;BME280;19962;47.820;1.930;2024-01-15T08:34:41;99931.31;;;3.72;80.41
33625;BME280;19962;47.820;1.930;2024-01-15T08:37:08;99933.84;;;3.80;80.40
33625;BME280;19962;47.820;1.930;2024-01-15T08:39:34;99940.59;;;3.91;80.22
33625;BME280;19962;47.820;1.930;2024-01-15T08:42:00;99940.41;;;3.99;80.13
33625;BME280;19962;47.820;1.930;2024-01-15T08:44:26;99945.66;;;4.13;79.83
33625;BME280;19962;47.820;1.930;2024-01-15T08:46:52;99941.09;;;4.14;79.68
33625;BME280;19962;47.820;1.930;2024-01-15T08:49:18;99950.06;;;4.08;79.78
33625;BME280;19962;47.820;1.930;2024-01-15T08:51:44;99956.97;;;4.10;80.07
33625;BME280;19962;47.820;1.930;2024-01-15T08:54:10;99951.91;;;4.07;80.04
33625;BME280;19962;47.820;1.930;2024-01-15T08:56:36;99955.72;;;4.13;79.92
33625;BME280;19962;47.820;1.930;2024-01-15T08:59:02;99950.69;;;4.16;80.27
33625;BME280;19962;47.820;1.930;2024-01-15T09:01:28;99962.81;;;4.14;80.38
33625;BME280;19962;47.820;1.930;2024-01-15T09:03:55;99967.16;;;4.08;80.34
33625;BME280;19962;47.820;1.930;2024-01-15T09:06:21;99980.09;;;4.00;80.61
33625;BME280;19962;47.820;1.930;2024-01-15T09:08:47;99981.53;;;3.96;80.77
33625;BME280;19962;47.820;1.930;2024-01-15T09:11:13;99983.03;;;4.05;80.82
33625;BME280;19962;47.820;1.930;2024-01-15T09:13:39;99992.88;;;4.12;80.67
33625;BME280;19962;47.820;1.930;2024-01-15T09:16:06;99988.31;;;4.19;80.50
33625;BME280;19962;47.820;1.930;2024-01-15T09:18:32;99987.50;;;4.25;80.63
33625;BME280;19962;47.820;1.930;2024-01-15T09:20:58;99985.66;;;4.32;80.60
33625;BME280;19962;47.820;1.930;2024-01-15T09:23:24;99985.03;;;4.43;80.11
33625;BME280;19962;47.820;1.930;2024-01-15T09:25:50;99983.19;;;4.50;79.83
33625;BME280;19962;47.820;1.930;2024-01-15T09:28:18;99986.75;;;4.57;79.64
33625;BME280;19962;47.820;1.930;2024-01-15T09:30:44;99989.69;;;4.62;79.70
33625;BME280;19962;47.820;1.930;2024-01-15T09:33:11;99987.59;;;4.58;79.68
33625;BME280;19962;47.820;1.930;2024-01-15T09:35:37;99987.81;;;4.63;79.72
33625;BME280;19962;47.820;1.930;2024-01-15T09:38:03;99977.56;;;4.65;79.82
33625;BME280;19962;47.820;1.930;2024-01-15T09:40:32;99987.81;;;4.69;79.92
33625;BME280;19962;47.820;1.930;2024-01-15T09:43:01;99987.19;;;4.80;79.48
33625;BME280;19962;47.820;1.930;2024-01-15T09:45:28;99988.91;;;4.81;79.58
33625;BME280;19962;47.820;1.930;2024-01-15T09:47:54;99990.38;;;4.90;79.44
33625;BME280;19962;47.820;1.930;2024-01-15T09:50:20;99990.38;;;4.90;79.44
33625;BME280;19962;47.820;1.930;2024-01-15T09:52:47;99990.13;;;4.92;79.54
33625;BME280;19962;47.820;1.930;2024-01-15T09:55:14;99989.31;;;4.91;79.86
33625;BME280;19962;47.820;1.930;2024-01-15T09:57:42;99995.56;;;4.92;79.80
33625;BME280;19962;47.820;1.930;2024-01-15T10:00:09;99988.47;;;4.97;79.65
33625;BME280;19962;47.820;1.930;2024-01-15T10:02:37;99988.28;;;5.05;79.28
33625;BME280;19962;47.820;1.930;2024-01-15T10:05:03;99997.28;;;5.12;79.47
33625;BME280;19962;47.820;1.930;2024-01-15T10:07:30;99999.78;;;5.14;79.25
33625;BME280;19962;47.820;1.930;2024-01-15T10:09:56;99994.34;;;5.14;79.30
33625;BME280;19962;47.820;1.930;2024-01-15T10:12:22;99997.25;;;5.19;79.28
33625;BME280;19962;47.820;1.930;2024-01-15T10:14:50;99998.13;;;5.19;79.45
33625;BME280;19962;47.820;1.930;2024-01-15T10:17:16;100002.09;;;5.17;79.66
33625;BME280;19962;47.820;1.930;2024-01-15T10:19:43;99999.78;;;5.20;79.55
33625;BME280;19962;47.820;1.930;2024-01-15T10:22:10;99995.41;;;5.19;79.46
33625;BME280;19962;47.820;1.930;2024-01-15T10:24:37;100001.03;;;5.18;79.75
33625;BME280;19962;47.820;1.930;2024-01-15T10:27:07;99999.38;;;5.23;79.69
33625;BME280;19962;47.820;1.930;2024-01-15T10:29:33;99998.97;;;5.33;79.67
33625;BME280;19962;47.820;1.930;2024-01-15T10:32:00;100002.50;;;5.33;79.45
33625;BME280;19962;47.820;1.930;2024-01-15T10:34:26;100003.97;;;5.36;79.44
33625;BME280;19962;47.820;1.930;2024-01-15T10:36:53;100007.53;;;5.43;79.26
33625;BME280;19962;47.820;1.930;2024-01-15T10:39:24;100003.34;;;5.40;79.49
33625;BME280;19962;47.820;1.930;2024-01-15T10:41:51;100011.50;;;5.40;79.45
33625;BME280;19962;47.820;1.930;2024-01-15T10:44:17;99994.97;;;5.42;79.51
33625;BME280;19962;47.820;1.930;2024-01-15T10:46:45;100000.63;;;5.40;79.33
33625;BME280;19962;47.820;1.930;2024-01-15T10:49:12;100006.06;;;5.40;79.45
33625;BME280;19962;47.820;1.930;2024-01-15T10:51:38;100008.78;;;5.40;79.62
33625;BME280;19962;47.820;1.930;2024-01-15T10:54:05;99998.72;;;5.34;79.76
33625;BME280;19962;47.820;1.930;2024-01-15T10:56:34;100010.25;;;5.36;79.71
33625;BME280;19962;47.820;1.930;2024-01-15T10:59:01;99999.56;;;5.41;79.63
33625;BME280;19962;47.820;1.930;2024-01-15T11:01:29;100004.81;;;5.36;79.89
33625;BME280;19962;47.820;1.930;2024-01-15T11:03:56;100004.81;;;5.43;80.04
33625;BME280;19962;47.820;1.930;2024-01-15T11:06:24;100001.03;;;5.44;80.04
33625;BME280;19962;47.820;1.930;2024-01-15T11:08:51;100002.28;;;5.41;80.33
33625;BME280;19962;47.820;1.930;2024-01-15T11:11:18;100004.41;;;5.39;80.25
33625;BME280;19962;47.820;1.930;2024-01-15T11:13:50;100002.50;;;5.40;80.62
33625;BME280;19962;47.820;1.930;2024-01-15T11:16:18;99994.97;;;5.42;80.21
33625;BME280;19962;47.820;1.930;2024-01-15T11:19:02;99995.19;;;5.40;80.86
33625;BME280;19962;47.820;1.930;2024-01-15T11:21:29;99998.72;;;5.47;80.23
33625;BME280;19962;47.820;1.930;2024-01-15T11:24:01;99992.66;;;5.58;80.01
33625;BME280;19962;47.820;1.930;2024-01-15T11:29:02;99997.69;;;5.61;80.22
33625;BME280;19962;47.820;1.930;2024-01-15T11:34:21;99992.19;;;5.68;79.98
33625;BME280;19962;47.820;1.930;2024-01-15T11:37:07;99993.44;;;5.72;80.64
33625;BME280;19962;47.820;1.930;2024-01-15T11:42:01;99991.97;;;5.89;79.09
33625;BME280;19962;47.820;1.930;2024-01-15T11:44:28;99993.66;;;5.90;79.52
33625;BME280;19962;47.820;1.930;2024-01-15T11:50:02;99990.28;;;5.94;79.88
33625;BME280;19962;47.820;1.930;2024-01-15T11:52:35;99990.50;;;5.93;79.57
33625;BME280;19962;47.820;1.930;2024-01-15T11:55:12;99987.56;;;5.94;80.43
33625;BME280;19962;47.820;1.930;2024-01-15T11:57:47;99991.75;;;6.03;79.83
33625;BME280;19962;47.820;1.930;2024-01-15T12:00:16;99992.56;;;6.10;79.68
33625;BME280;19962;47.820;1.930;2024-01-15T12:02:44;99997.31;;;6.21;79.40
33625;BME280;19962;47.820;1.930;2024-01-15T12:05:12;99986.41;;;6.28;79.44
33625;BME280;19962;47.820;1.930;2024-01-15T12:07:45;99995.41;;;6.35;79.60
33625;BME280;19962;47.820;1.930;2024-01-15T12:10:16;99993.66;;;6.40;79.52
33625;BME280;19962;47.820;1.930;2024-01-15T12:12:58;99994.53;;;6.34;80.12
33625;BME280;19962;47.820;1.930;2024-01-15T12:15:26;99994.72;;;6.39;79.92
33625;BME280;19962;47.820;1.930;2024-01-15T12:17:54;99993.81;;;6.52;79.41
33625;BME280;19962;47.820;1.930;2024-01-15T12:20:20;99990.47;;;6.56;79.18
33625;BME280;19962;47.820;1.930;2024-01-15T12:22:46;99995.91;;;6.56;79.38
33625;BME280;19962;47.820;1.930;2024-01-15T12:25:12;99997.16;;;6.60;79.02
33625;BME280;19962;47.820;1.930;2024-01-15T12:27:38;99993.53;;;6.66;79.34
33625;BME280;19962;47.820;1.930;2024-01-15T12:30:06;99991.88;;;6.65;79.46
33625;BME280;19962;47.820;1.930;2024-01-15T12:32:34;99996.09;;;6.61;79.60
33625;BME280;19962;47.820;1.930;2024-01-15T12:35:01;99996.09;;;6.61;79.90
33625;BME280;19962;47.820;1.930;2024-01-15T12:37:27;99995.63;;;6.71;79.28
33625;BME280;19962;47.820;1.930;2024-01-15T12:39:55;99992.91;;;6.71;79.13
33625;BME280;19962;47.820;1.930;2024-01-15T12:42:21;99991.06;;;6.58;79.19
33625;BME280;19962;47.820;1.930;2024-01-15T12:44:48;99991.13;;;6.45;79.61
33625;BME280;19962;47.820;1.930;2024-01-15T12:47:14;99998.56;;;6.25;80.55
33625;BME280;19962;47.820;1.930;2024-01-15T12:49:42;99988.78;;;6.11;80.91
33625;BME280;19962;47.820;1.930;2024-01-15T12:52:09;99990.88;;;6.09;81.18
33625;BME280;19962;47.820;1.930;2024-01-15T12:54:36;99998.84;;;6.04;81.47
33625;BME280;19962;47.820;1.930;2024-01-15T12:57:02;99997.16;;;6.10;81.57
33625;BME280;19962;47.820;1.930;2024-01-15T12:59:29;99998.00;;;6.10;81.59
33625;BME280;19962;47.820;1.930;2024-01-15T13:01:55;99991.31;;;6.06;81.25
33625;BME280;19962;47.820;1.930;2024-01-15T13:04:25;99997.19;;;6.03;81.83
33625;BME280;19962;47.820;1.930;2024-01-15T13:06:51;99986.72;;;6.00;81.30
33625;BME280;19962;47.820;1.930;2024-01-15T13:09:18;99983.78;;;6.02;80.60
33625;BME280;19962;47.820;1.930;2024-01-15T13:11:45;99985.91;;;5.93;80.64
33625;BME280;19962;47.820;1.930;2024-01-15T13:14:11;99991.34;;;6.00;80.33